Time;durP1;ratioP1;P1;durP2;ratioP2;P2;SDS_P1;SDS_P2;PMS_P1;PMS_P2;Temp;Humidity;BMP_temperature;BMP_pressure;BME280_temperature;BME280_humidity;BME280_pressure;Samples;Min_cycle;Max_cycle;Signal;HPM_P1;HPM_P2
2022/11/25 00:01:21;;;;;;;9.40;6.20;;;;;;;5.97;100.00;99996.25;5030980;28;20057;-69
2022/11/25 00:03:47;;;;;;;16.17;6.70;;;;;;;5.97;100.00;99988.34;5029259;28;20146;-69
2022/11/25 00:06:16;;;;;;;15.30;7.20;;;;;;;5.94;100.00;99977.84;5029783;28;20032;-69
2022/11/25 00:08:43;;;;;;;11.38;6.47;;;;;;;6.00;100.00;99993.56;5030920;28;20436;-70
2022/11/25 00:11:11;;;;;;;8.52;6.22;;;;;;;5.98;100.00;99995.38;5029773;28;20666;-69
2022/11/25 00:13:37;;;;;;;11.45;6.00;;;;;;;5.97;100.00;99998.91;5020467;28;20358;-70
2022/11/25 00:16:05;;;;;;;10.60;6.65;;;;;;;5.98;100.00;99995.38;5010512;28;20021;-70
2022/11/25 00:18:31;;;;;;;8.63;5.53;;;;;;;5.95;100.00;99985.72;5011734;28;20030;-69
2022/11/25 00:20:56;;;;;;;10.15;5.07;;;;;;;5.91;100.00;99991.09;5011718;28;20373;-69
2022/11/25 00:23:22;;;;;;;8.80;5.10;;;;;;;5.90;100.00;99986.69;5015289;28;20377;-69
2022/11/25 00:25:48;;;;;;;9.82;4.80;;;;;;;5.93;100.00;99989.31;5030853;28;20037;-69
2022/11/25 00:28:13;;;;;;;7.57;5.03;;;;;;;5.85;100.00;99973.56;5030711;28;20033;-69
2022/11/25 00:30:38;;;;;;;9.73;5.20;;;;;;;5.94;100.00;99985.75;5030419;28;20052;-69
2022/11/25 00:33:04;;;;;;;9.65;5.28;;;;;;;5.84;100.00;99979.75;5030790;28;20338;-69
2022/11/25 00:35:29;;;;;;;12.15;5.18;;;;;;;5.80;100.00;99979.78;5030476;28;20025;-69
2022/11/25 00:37:55;;;;;;;7.90;5.65;;;;;;;5.83;100.00;99985.03;5030362;28;20040;-69
2022/11/25 00:40:20;;;;;;;13.68;5.63;;;;;;;5.80;100.00;99985.06;5030655;28;20034;-69
2022/11/25 00:45:29;;;;;;;;;;;;;;;5.79;100.00;99984.19;5011747;28;20530;-69
2022/11/25 00:47:55;;;;;;;11.82;5.70;;;;;;;5.82;100.00;99983.25;5011765;28;19913;-69
2022/11/25 00:50:20;;;;;;;10.55;6.15;;;;;;;5.84;100.00;99986.78;5023140;28;20690;-69
2022/11/25 00:52:45;;;;;;;10.73;5.53;;;;;;;5.77;100.00;99964.84;5030929;28;20746;-68
2022/11/25 00:55:11;;;;;;;10.35;5.82;;;;;;;5.76;100.00;99964.88;5032781;28;20096;-68
2022/11/25 00:57:36;;;;;;;10.23;5.72;;;;;;;5.91;100.00;99980.53;5035153;28;20047;-68
2022/11/25 01:00:03;;;;;;;12.07;6.07;;;;;;;5.98;100.00;99987.47;5050117;28;20053;-68
2022/11/25 01:02:29;;;;;;;10.68;6.57;;;;;;;6.02;100.00;99981.22;5035010;28;20029;-68
2022/11/25 01:04:54;;;;;;;9.55;6.30;;;;;;;6.06;100.00;99977.66;5034745;28;20087;-68
2022/11/25 01:07:19;;;;;;;10.95;5.88;;;;;;;6.04;100.00;99976.81;5031996;28;20032;-68
2022/11/25 01:09:46;;;;;;;12.82;7.05;;;;;;;6.05;100.00;99975.91;5013973;28;20069;-68
2022/11/25 01:12:11;;;;;;;13.73;7.00;;;;;;;6.24;100.00;99987.94;5015249;28;20367;-68
2022/11/25 01:14:37;;;;;;;9.93;6.53;;;;;;;6.20;100.00;99988.88;5015091;28;20033;-69
2022/11/25 01:17:02;;;;;;;13.60;6.57;;;;;;;6.33;100.00;100003.63;5024375;28;20029;-68
2022/11/25 01:19:28;;;;;;;10.90;6.07;;;;;;;6.43;100.00;100007.88;5034887;28;20027;-68
2022/11/25 01:21:53;;;;;;;14.63;6.50;;;;;;;6.38;100.00;100004.44;5034918;28;20037;-68
2022/11/25 01:24:19;;;;;;;10.73;5.50;;;;;;;6.45;100.00;100011.38;5019306;28;20030;-69
2022/11/25 01:26:45;;;;;;;10.82;5.00;;;;;;;6.52;100.00;100013.88;5013801;28;20036;-68
2022/11/25 01:29:14;;;;;;;36.63;6.57;;;;;;;6.55;100.00;100016.50;5014969;28;20112;-69
2022/11/25 01:31:40;;;;;;;16.25;7.50;;;;;;;6.57;100.00;100019.09;5014828;28;20030;-68
2022/11/25 01:34:12;;;;;;;10.95;5.95;;;;;;;6.46;100.00;100005.19;5014593;28;20026;-68
2022/11/25 01:36:37;;;;;;;13.90;5.65;;;;;;;6.53;100.00;100007.72;5029260;28;20025;-69
2022/11/25 01:39:03;;;;;;;11.05;6.25;;;;;;;6.52;100.00;100013.88;5034059;28;20104;-68
2022/11/25 01:41:31;;;;;;;15.07;7.47;;;;;;;6.44;100.00;99999.06;5034170;28;20049;-69
2022/11/25 01:44:11;;;;;;;10.75;6.55;;;;;;;6.48;100.00;100008.66;5032315;28;20033;-68
2022/11/25 01:46:57;;;;;;;11.60;5.63;;;;;;;6.46;100.00;100011.34;5033767;28;20048;-68
2022/11/25 01:49:31;;;;;;;12.00;6.35;;;;;;;6.45;100.00;100003.44;5033980;28;20366;-69
2022/11/25 01:52:12;;;;;;;9.90;5.47;;;;;;;6.43;100.00;100005.22;5034111;28;20108;-69
2022/11/25 01:54:45;;;;;;;11.98;6.20;;;;;;;6.40;100.00;100002.66;5034109;28;20657;-68
2022/11/25 01:57:16;;;;;;;8.90;5.70;;;;;;;6.40;100.00;99998.25;5032721;28;20132;-69
2022/11/25 01:59:47;;;;;;;11.50;5.70;;;;;;;6.40;100.00;100000.00;5033892;28;20032;-69
2022/11/25 02:02:14;;;;;;;12.48;7.20;;;;;;;6.37;100.00;100000.94;5038320;28;20045;-72
2022/11/25 02:04:40;;;;;;;10.20;5.40;;;;;;;6.37;100.00;100000.06;5063611;28;20029;-72
2022/11/25 02:07:25;;;;;;;8.63;4.43;;;;;;;6.35;100.00;99993.91;5046675;28;20423;-72
2022/11/25 02:09:51;;;;;;;9.80;5.07;;;;;;;6.36;100.00;99995.66;5048153;28;20067;-72
2022/11/25 02:12:19;;;;;;;6.88;4.57;;;;;;;6.33;100.00;99987.78;5047988;28;20026;-72
2022/11/25 02:14:46;;;;;;;9.10;4.70;;;;;;;6.33;100.00;99993.94;5027295;28;20018;-72
2022/11/25 02:17:12;;;;;;;7.63;4.43;;;;;;;6.29;100.00;99973.75;5027287;28;20026;-72
2022/11/25 02:19:40;;;;;;;11.77;4.85;;;;;;;6.31;100.00;99974.59;5027974;28;20041;-72
2022/11/25 02:22:14;;;;;;;26.42;10.85;;;;;;;6.31;100.00;99986.97;5027426;28;20421;-72
2022/11/25 02:24:49;;;;;;;13.10;8.55;;;;;;;6.27;100.00;99986.13;5043516;28;20085;-72
2022/11/25 02:27:15;;;;;;;21.42;6.47;;;;;;;6.30;100.00;99985.19;5048596;28;20021;-72
2022/11/25 02:29:42;;;;;;;12.27;5.95;;;;;;;6.25;100.00;99979.13;5045994;28;20045;-72
2022/11/25 02:32:07;;;;;;;9.90;5.75;;;;;;;6.17;100.00;99966.03;5045457;28;20060;-72
2022/11/25 02:34:33;;;;;;;7.18;3.85;;;;;;;6.20;100.00;99963.34;5047859;28;20385;-72
2022/11/25 02:36:59;;;;;;;8.82;5.05;;;;;;;6.29;100.00;99980.81;5049690;28;20160;-72
2022/11/25 02:39:24;;;;;;;8.60;4.95;;;;;;;6.26;100.00;99975.59;5048936;28;20040;-72
2022/11/25 02:41:57;;;;;;;7.93;4.03;;;;;;;6.26;100.00;99980.88;5047862;28;20053;-72
2022/11/25 02:44:23;;;;;;;6.87;4.20;;;;;;;6.21;100.00;99966.88;5031637;28;20799;-72
2022/11/25 02:46:49;;;;;;;6.95;3.83;;;;;;;6.18;100.00;99961.59;5029882;28;20036;-72
2022/11/25 02:49:14;;;;;;;7.00;4.25;;;;;;;6.28;100.00;99979.06;5030083;28;20021;-72
2022/11/25 02:51:43;;;;;;;7.82;3.75;;;;;;;6.28;100.00;99974.66;5027812;28;20018;-72
2022/11/25 02:54:10;;;;;;;6.05;3.97;;;;;;;6.20;100.00;99951.91;5031506;28;20029;-72
2022/11/25 02:56:35;;;;;;;11.25;3.90;;;;;;;6.33;100.00;99961.38;5041107;28;20032;-72
2022/11/25 02:59:02;;;;;;;7.55;4.53;;;;;;;6.35;100.00;99962.22;5031740;28;20053;-72
2022/11/25 03:01:30;;;;;;;10.10;4.30;;;;;;;6.34;100.00;99960.50;5037370;28;20050;-72
2022/11/25 03:03:55;;;;;;;8.93;4.35;;;;;;;6.33;100.00;99961.38;5030653;28;20025;-72
2022/11/25 03:06:21;;;;;;;7.78;4.15;;;;;;;6.32;100.00;99959.63;5037727;28;20057;-72
2022/11/25 03:08:47;;;;;;;7.85;4.20;;;;;;;6.22;100.00;99955.41;5039579;28;20029;-72
2022/11/25 03:11:12;;;;;;;7.47;3.92;;;;;;;6.25;100.00;99964.16;5038078;28;20033;-72
2022/11/25 03:13:38;;;;;;;6.28;4.05;;;;;;;6.15;100.00;99961.66;5029117;28;20021;-73
2022/11/25 03:16:03;;;;;;;6.60;4.05;;;;;;;6.22;100.00;99964.19;5020087;28;20036;-72
2022/11/25 03:18:29;;;;;;;6.63;4.05;;;;;;;6.22;100.00;99973.88;5020356;28;20026;-72
2022/11/25 03:20:55;;;;;;;7.53;4.10;;;;;;;6.19;100.00;99958.97;5038338;28;20036;-72
2022/11/25 03:23:21;;;;;;;6.95;3.95;;;;;;;6.24;100.00;99964.19;5041309;28;20079;-72
2022/11/25 03:25:47;;;;;;;7.70;4.60;;;;;;;6.25;100.00;99958.88;5045083;28;20037;-72
2022/11/25 03:28:13;;;;;;;7.85;3.95;;;;;;;6.28;100.00;99965.84;5043248;28;20035;-72
2022/11/25 03:30:38;;;;;;;5.45;3.10;;;;;;;6.34;100.00;99965.78;5041840;28;20025;-72
2022/11/25 03:33:04;;;;;;;6.38;4.30;;;;;;;6.30;100.00;99958.78;5041991;28;20033;-72
2022/11/25 03:35:29;;;;;;;6.38;3.60;;;;;;;6.24;100.00;99950.97;5039277;28;20026;-72
2022/11/25 03:37:55;;;;;;;8.05;3.55;;;;;;;6.34;100.00;99963.13;5039206;28;20021;-72
2022/11/25 03:40:20;;;;;;;5.40;3.33;;;;;;;6.35;100.00;99962.22;5041209;28;20037;-72
2022/11/25 03:42:46;;;;;;;7.60;4.13;;;;;;;6.32;100.00;99944.66;5036813;28;20481;-72
2022/11/25 03:45:13;;;;;;;5.43;3.97;;;;;;;6.32;100.00;99949.06;5020853;28;20065;-72
2022/11/25 03:47:42;;;;;;;7.85;4.00;;;;;;;6.33;100.00;99953.44;5016225;28;20038;-73
2022/11/25 03:50:10;;;;;;;12.25;4.68;;;;;;;6.31;100.00;99952.63;5034303;28;20083;-72
2022/11/25 03:52:35;;;;;;;8.27;4.22;;;;;;;6.11;100.00;99938.88;5035714;28;20026;-72
2022/11/25 03:55:01;;;;;;;7.43;4.05;;;;;;;6.06;100.00;99935.41;5036741;28;20785;-72
2022/11/25 03:57:26;;;;;;;5.28;3.40;;;;;;;6.07;100.00;99958.28;5053505;28;20034;-72
2022/11/25 03:59:52;;;;;;;9.45;4.00;;;;;;;5.96;100.00;99960.22;5039380;28;20042;-72
2022/11/25 04:02:17;;;;;;;8.05;3.58;;;;;;;5.87;100.00;99958.56;5054538;28;20029;-72
2022/11/25 04:04:43;;;;;;;22.70;9.25;;;;;;;5.79;100.00;99960.44;5039730;28;20070;-72
2022/11/25 04:07:10;;;;;;;23.60;11.70;;;;;;;5.60;100.00;99926.41;5037462;28;20398;-72
2022/11/25 04:09:35;;;;;;;36.35;19.33;;;;;;;5.61;100.00;99943.97;5037597;28;20075;-72
2022/11/25 04:14:44;;;;;;;;;;;;;;;5.48;100.00;99935.38;5040555;28;20024;-72
2022/11/25 04:17:09;;;;;;;43.70;25.50;;;;;;;5.44;100.00;99932.81;5036123;28;19912;-72
2022/11/25 04:19:35;;;;;;;26.75;16.83;;;;;;;5.34;100.00;99926.75;5038034;28;20033;-72
2022/11/25 04:22:01;;;;;;;19.85;12.93;;;;;;;5.43;100.00;99946.88;5039175;28;20057;-72
2022/11/25 04:24:27;;;;;;;11.90;6.57;;;;;;;5.38;100.00;99939.91;5033736;28;20109;-73
2022/11/25 04:26:53;;;;;;;14.32;7.50;;;;;;;5.37;100.00;99942.53;5039075;28;20033;-72
2022/11/25 04:29:18;;;;;;;13.43;6.35;;;;;;;5.36;100.00;99935.53;5039160;28;20143;-72
2022/11/25 04:31:44;;;;;;;11.60;6.13;;;;;;;5.38;100.00;99939.91;5043169;28;20114;-72
2022/11/25 04:34:09;;;;;;;10.00;6.78;;;;;;;5.34;100.00;99929.38;5043229;28;20083;-72
2022/11/25 04:36:35;;;;;;;10.25;5.90;;;;;;;5.41;100.00;99933.69;5042704;28;20032;-72
2022/11/25 04:39:00;;;;;;;8.05;4.78;;;;;;;5.36;100.00;99925.84;5042962;28;20087;-72
2022/11/25 04:41:26;;;;;;;8.57;4.45;;;;;;;5.49;100.00;99937.09;5044302;28;20107;-72
2022/11/25 04:43:51;;;;;;;7.85;4.88;;;;;;;5.48;100.00;99940.66;5030104;28;20041;-72
2022/11/25 04:46:20;;;;;;;7.80;3.92;;;;;;;5.43;100.00;99944.22;5020692;28;20082;-72
2022/11/25 04:48:46;;;;;;;5.18;3.28;;;;;;;5.28;100.00;99940.91;5022114;28;20030;-72
2022/11/25 04:51:11;;;;;;;12.13;4.30;;;;;;;5.23;100.00;99945.38;5022672;28;20029;-72
2022/11/25 04:53:37;;;;;;;6.97;4.05;;;;;;;5.13;100.00;99941.09;5025194;28;20029;-72
2022/11/25 04:56:03;;;;;;;9.18;4.18;;;;;;;5.09;100.00;99955.19;5023629;28;20111;-72
2022/11/25 05:01:12;;;;;;;6.60;3.75;;;;;;;5.01;100.00;99951.78;5039886;28;20059;-72
2022/11/25 05:03:38;;;;;;;8.15;4.38;;;;;;;4.97;100.00;99950.06;5041090;28;20089;-72
2022/11/25 05:06:07;;;;;;;6.80;3.75;;;;;;;4.94;100.00;99951.88;5036239;28;20085;-72
2022/11/25 05:08:32;;;;;;;10.63;4.10;;;;;;;4.88;100.00;99952.78;5043502;28;20377;-72
2022/11/25 05:10:58;;;;;;;7.50;3.72;;;;;;;4.87;100.00;99953.69;5038728;28;20029;-72
2022/11/25 05:13:24;;;;;;;17.85;4.65;;;;;;;4.89;100.00;99974.75;5041924;28;20029;-72
2022/11/25 05:15:49;;;;;;;6.47;3.72;;;;;;;4.89;100.00;99986.16;5048176;28;20025;-72
2022/11/25 05:18:14;;;;;;;6.00;4.00;;;;;;;4.89;100.00;99990.56;5049653;28;20045;-72
2022/11/25 05:20:40;;;;;;;8.15;3.63;;;;;;;4.80;100.00;99985.38;5046411;28;20025;-72
2022/11/25 05:23:05;;;;;;;6.28;3.53;;;;;;;4.87;100.00;100003.78;5044788;28;20332;-72
2022/11/25 05:25:31;;;;;;;6.35;3.47;;;;;;;4.81;100.00;100001.16;5046685;28;20022;-72
2022/11/25 05:27:56;;;;;;;5.32;3.22;;;;;;;4.76;100.00;100004.75;5043732;28;20048;-72
2022/11/25 05:30:22;;;;;;;8.82;3.40;;;;;;;4.76;100.00;100008.25;5047064;28;20029;-72
2022/11/25 05:32:47;;;;;;;6.88;3.17;;;;;;;4.77;100.00;100007.38;5045708;28;20112;-72
2022/11/25 05:35:12;;;;;;;5.45;4.13;;;;;;;4.89;100.00;100004.59;5039103;28;20100;-72
2022/11/25 05:37:38;;;;;;;17.23;5.07;;;;;;;4.99;100.00;99998.34;5040439;28;20385;-72
2022/11/25 05:40:04;;;;;;;13.02;4.28;;;;;;;5.17;100.00;100006.06;5044243;28;20025;-71
2022/11/25 05:42:30;;;;;;;7.75;4.35;;;;;;;5.27;100.00;100026.16;5049170;28;20025;-71
2022/11/25 05:44:55;;;;;;;10.02;4.28;;;;;;;5.38;100.00;100026.03;5041877;28;20024;-72
2022/11/25 05:47:21;;;;;;;12.43;4.40;;;;;;;5.47;100.00;100022.44;5046652;28;20032;-72
2022/11/25 05:49:46;;;;;;;8.63;4.05;;;;;;;5.59;100.00;100032.81;5047740;28;20029;-72
2022/11/25 05:52:12;;;;;;;6.68;4.35;;;;;;;5.66;100.00;100035.38;5053000;28;20085;-72
2022/11/25 05:54:37;;;;;;;9.18;4.28;;;;;;;5.65;100.00;100028.34;5051870;28;20064;-71
2022/11/25 05:57:02;;;;;;;7.25;4.50;;;;;;;5.81;100.00;100048.38;5050923;28;20033;-72
2022/11/25 05:59:28;;;;;;;9.80;4.20;;;;;;;5.79;100.00;100026.41;5050060;28;20035;-73
2022/11/25 06:01:53;;;;;;;8.50;4.30;;;;;;;5.98;100.00;100037.63;5050208;28;20045;-72
2022/11/25 06:04:19;;;;;;;8.80;4.70;;;;;;;6.04;100.00;100043.69;5050055;28;20032;-72
2022/11/25 06:06:44;;;;;;;10.77;5.05;;;;;;;6.06;100.00;100031.31;5049837;28;20044;-72
2022/11/25 06:09:10;;;;;;;11.00;4.90;;;;;;;6.20;100.00;100050.50;5049938;28;20068;-72
2022/11/25 06:11:36;;;;;;;13.15;4.85;;;;;;;6.29;100.00;100042.41;5048991;28;20052;-72
2022/11/25 06:14:02;;;;;;;25.92;5.75;;;;;;;6.37;100.00;100037.03;5033860;28;20029;-72
2022/11/25 06:16:27;;;;;;;11.13;5.30;;;;;;;6.41;100.00;100026.41;5030103;28;20034;-72
2022/11/25 06:18:53;;;;;;;10.00;5.40;;;;;;;6.52;100.00;100032.38;5028212;28;20032;-71
2022/11/25 06:21:18;;;;;;;12.55;6.10;;;;;;;6.61;100.00;100037.53;5030717;28;20030;-72
2022/11/25 06:23:44;;;;;;;15.60;7.90;;;;;;;6.72;100.00;100053.22;5025818;28;20116;-72
2022/11/25 06:26:20;;;;;;;15.43;6.95;;;;;;;6.73;100.00;100062.88;5028395;28;20033;-72
2022/11/25 06:28:46;;;;;;;10.90;6.65;;;;;;;6.78;100.00;100071.59;5028526;28;20060;-72
2022/11/25 06:31:17;;;;;;;14.98;6.65;;;;;;;6.85;100.00;100077.66;5028204;28;20033;-72
2022/11/25 06:33:46;;;;;;;10.73;6.78;;;;;;;6.89;100.00;100082.88;5028310;28;20022;-72
2022/11/25 06:36:17;;;;;;;12.00;7.13;;;;;;;6.95;100.00;100090.72;5040219;28;20155;-72
2022/11/25 06:38:51;;;;;;;13.00;8.27;;;;;;;7.00;100.00;100075.59;5046317;28;20057;-72
2022/11/25 06:41:17;;;;;;;10.98;7.57;;;;;;;7.03;100.00;100083.50;5047990;28;20033;-71
2022/11/25 06:43:42;;;;;;;17.23;7.97;;;;;;;7.06;100.00;100072.88;5035453;28;20054;-72
2022/11/25 06:46:11;;;;;;;17.77;7.38;;;;;;;7.09;100.00;100070.19;5039505;28;20044;-72
2022/11/25 06:48:37;;;;;;;14.60;6.90;;;;;;;7.12;100.00;100075.41;5046017;28;20025;-72
2022/11/25 06:51:05;;;;;;;14.68;6.57;;;;;;;7.08;100.00;100060.50;5045594;28;20033;-72
2022/11/25 06:53:32;;;;;;;11.38;5.88;;;;;;;7.09;100.00;100069.28;5041740;28;20077;-72
2022/11/25 06:56:08;;;;;;;10.15;6.10;;;;;;;7.18;100.00;100083.22;5040495;28;20116;-72
2022/11/25 06:58:34;;;;;;;10.85;5.90;;;;;;;7.22;100.00;100090.22;5043282;28;20037;-72
2022/11/25 07:01:02;;;;;;;10.25;5.50;;;;;;;7.24;100.00;100088.41;5044969;28;20099;-72
2022/11/25 07:03:28;;;;;;;8.57;5.90;;;;;;;7.23;100.00;100081.38;5041231;28;20382;-72
2022/11/25 07:05:58;;;;;;;12.82;5.32;;;;;;;7.30;100.00;100092.72;5031207;28;20028;-72
2022/11/25 07:08:25;;;;;;;9.38;5.45;;;;;;;7.35;100.00;100097.03;5039343;28;20060;-71
2022/11/25 07:10:51;;;;;;;11.90;6.43;;;;;;;7.34;100.00;100095.28;5041171;28;20024;-72
2022/11/25 07:13:18;;;;;;;8.45;5.38;;;;;;;7.31;100.00;100090.06;5029966;28;20353;-72
2022/11/25 07:15:43;;;;;;;11.70;5.35;;;;;;;7.39;100.00;100093.44;5020929;28;20053;-72
2022/11/25 07:18:08;;;;;;;7.80;5.32;;;;;;;7.42;100.00;100103.06;5041816;28;20033;-72
2022/11/25 07:20:34;;;;;;;9.82;5.53;;;;;;;7.42;100.00;100100.44;5044420;28;20036;-72
2022/11/25 07:22:59;;;;;;;12.52;7.32;;;;;;;7.34;100.00;100092.66;5056393;28;20048;-72
2022/11/25 07:25:25;;;;;;;18.08;8.45;;;;;;;7.44;100.00;100106.56;5036844;28;20045;-72
2022/11/25 07:27:50;;;;;;;15.02;8.13;;;;;;;7.43;100.00;100110.13;5034599;28;20026;-72
2022/11/25 07:30:16;;;;;;;14.77;7.60;;;;;;;7.45;100.00;100118.88;5035859;28;20021;-72
2022/11/25 07:32:41;;;;;;;11.50;7.75;;;;;;;7.48;100.00;100121.50;5036035;28;20389;-72
2022/11/25 07:35:07;;;;;;;13.60;6.63;;;;;;;7.43;100.00;100108.34;5029193;28;20115;-72
2022/11/25 07:37:32;;;;;;;10.65;6.28;;;;;;;7.51;100.00;100111.72;5018215;28;20033;-72
2022/11/25 07:39:58;;;;;;;9.88;6.57;;;;;;;7.63;100.00;100115.91;5026571;28;20479;-72
2022/11/25 07:42:23;;;;;;;15.18;7.75;;;;;;;7.70;100.00;100128.13;5030945;28;20032;-72
2022/11/25 07:44:49;;;;;;;11.15;7.38;;;;;;;7.79;100.00;100141.19;5029951;28;20536;-71
2022/11/25 07:47:14;;;;;;;12.25;8.05;;;;;;;7.86;100.00;100135.75;5015438;28;20113;-72
2022/11/25 07:49:40;;;;;;;13.80;7.47;;;;;;;7.87;100.00;100129.53;5022039;28;20030;-72
2022/11/25 07:52:05;;;;;;;14.32;8.75;;;;;;;7.88;100.00;100118.06;5022617;28;20029;-72
2022/11/25 07:54:32;;;;;;;16.67;7.88;;;;;;;8.03;100.00;100146.88;5028614;28;20120;-72
2022/11/25 07:56:57;;;;;;;14.73;6.72;;;;;;;8.07;100.00;100146.81;5030191;28;20079;-72
2022/11/25 07:59:23;;;;;;;13.57;6.70;;;;;;;8.16;100.00;100152.78;5029478;28;20473;-72
2022/11/25 08:01:51;;;;;;;11.50;7.10;;;;;;;8.21;100.00;100142.97;5028937;28;20029;-71
2022/11/25 08:04:16;;;;;;;12.80;7.97;;;;;;;8.27;100.00;100144.66;5023361;28;20022;-72
2022/11/25 08:06:44;;;;;;;11.38;5.65;;;;;;;8.33;100.00;100141.88;5014540;28;20492;-72
2022/11/25 08:09:14;;;;;;;8.55;5.35;;;;;;;8.43;100.00;100143.41;5026743;28;20029;-72
2022/11/25 08:11:39;;;;;;;10.05;5.18;;;;;;;8.47;100.00;100137.13;5022528;28;20630;-71
2022/11/25 08:14:05;;;;;;;12.43;6.05;;;;;;;8.55;100.00;100140.50;5018106;28;20022;-72
2022/11/25 08:16:31;;;;;;;9.23;4.93;;;;;;;8.65;100.00;100134.94;5023202;28;20034;-72
2022/11/25 08:19:03;;;;;;;6.45;4.35;;;;;;;8.75;100.00;100138.25;5025138;28;20037;-72
2022/11/25 08:21:29;;;;;;;7.78;4.20;;;;;;;8.78;100.00;100128.44;5017141;28;20091;-71
2022/11/25 08:23:55;;;;;;;7.90;3.72;;;;;;;8.88;100.00;100145.03;5012927;28;20485;-72
2022/11/25 08:26:26;;;;;;;10.77;5.03;;;;;;;8.93;100.00;100137.81;5018466;28;20068;-72
2022/11/25 08:28:56;;;;;;;11.18;4.50;;;;;;;8.94;100.00;100134.25;5010614;28;20057;-72
2022/11/25 08:31:25;;;;;;;9.15;4.30;;;;;;;8.97;100.00;100140.38;5027005;28;20160;-72
2022/11/25 08:33:51;;;;;;;6.47;4.05;;;;;;;9.03;100.00;100139.31;5027567;28;20030;-72
2022/11/25 08:36:17;;;;;;;8.95;4.72;;;;;;;9.04;100.00;100135.78;5029785;28;20462;-72
2022/11/25 08:38:45;;;;;;;9.77;4.55;;;;;;;9.10;100.00;100141.81;5025706;28;20029;-72
2022/11/25 08:41:23;;;;;;;8.43;4.43;;;;;;;9.23;100.00;100143.25;5021593;28;20036;-72
2022/11/25 08:43:49;;;;;;;9.98;5.18;;;;;;;9.38;100.00;100139.31;5022049;28;20086;-72
2022/11/25 08:46:21;;;;;;;11.43;6.25;;;;;;;9.54;100.00;100143.31;5024772;28;20364;-72
2022/11/25 08:48:46;;;;;;;8.73;4.60;;;;;;;9.67;100.00;100147.38;5015242;28;20041;-71
2022/11/25 08:51:16;;;;;;;8.93;4.43;;;;;;;9.70;100.00;100155.31;5017127;28;20938;-72
2022/11/25 08:53:42;;;;;;;12.07;6.07;;;;;;;9.72;100.00;100152.59;5028640;28;20468;-72
2022/11/25 08:56:07;;;;;;;9.35;4.40;;;;;;;9.67;100.00;100162.47;5020404;28;20055;-72
2022/11/25 08:58:33;;;;;;;9.13;5.28;;;;;;;9.58;100.00;100166.25;5018359;28;20080;-73
2022/11/25 09:01:00;;;;;;;9.75;3.95;;;;;;;9.49;100.00;100165.63;5016487;28;20049;-72
2022/11/25 09:03:25;;;;;;;5.65;4.00;;;;;;;9.54;100.00;100180.50;5029343;28;20749;-72
2022/11/25 09:05:53;;;;;;;8.15;3.28;;;;;;;9.52;100.00;100192.06;5030656;28;20025;-73
2022/11/25 09:08:19;;;;;;;3.95;2.38;;;;;;;9.53;100.00;100200.00;5030806;28;20025;-73
2022/11/25 09:10:45;;;;;;;5.45;2.20;;;;;;;9.50;100.00;100199.19;5030043;28;20021;-73
2022/11/25 09:13:10;;;;;;;5.30;2.47;;;;;;;9.51;100.00;100211.56;5021860;28;20370;-74
2022/11/25 09:15:37;;;;;;;9.40;2.72;;;;;;;9.45;100.00;100207.28;5010760;28;20026;-74
2022/11/25 09:18:05;;;;;;;5.47;3.88;;;;;;;9.43;100.00;100209.09;5021860;28;20029;-74
2022/11/25 09:20:32;;;;;;;10.63;3.28;;;;;;;9.52;100.00;100210.66;5021224;28;20474;-73
2022/11/25 09:22:59;;;;;;;7.28;3.10;;;;;;;9.57;100.00;100208.78;5018479;28;20033;-73
2022/11/25 09:25:24;;;;;;;5.90;3.13;;;;;;;9.59;100.00;100218.44;5022536;28;20040;-74
2022/11/25 09:27:50;;;;;;;9.43;2.85;;;;;;;9.61;100.00;100219.25;5020263;28;20029;-74
2022/11/25 09:30:15;;;;;;;6.47;3.00;;;;;;;9.48;100.00;100201.00;5022644;28;20082;-74
2022/11/25 09:32:41;;;;;;;7.72;3.10;;;;;;;9.53;100.00;100215.94;5032209;28;20029;-73
2022/11/25 09:35:07;;;;;;;5.45;3.00;;;;;;;9.51;100.00;100220.41;5022204;28;20022;-73
2022/11/25 09:37:33;;;;;;;7.93;3.42;;;;;;;9.58;100.00;100219.34;5025038;28;20029;-74
2022/11/25 09:39:58;;;;;;;7.68;3.25;;;;;;;9.65;100.00;100226.25;5014240;28;20389;-73
2022/11/25 09:48:41;;;;;;;7.97;4.10;;;;;;;9.76;100.00;100240.13;5028649;28;20087;-73
2022/11/25 09:51:23;;;;;;;9.38;4.30;;;;;;;9.48;100.00;100198.38;5016193;28;20057;-73
2022/11/25 09:54:47;;;;;;;8.40;4.35;;;;;;;9.84;100.00;100238.13;5018461;28;20451;-73
2022/11/25 09:57:55;;;;;;;11.95;6.20;;;;;;;9.87;100.00;100248.69;4956907;28;20043;-73
2022/11/25 10:00:21;;;;;;;10.73;6.40;;;;;;;9.86;100.00;100252.25;4976981;28;20077;-73
2022/11/25 10:02:59;;;;;;;7.97;5.15;;;;;;;9.86;100.00;100254.03;5029869;28;20072;-73
2022/11/25 10:05:30;;;;;;;8.20;4.57;;;;;;;9.74;100.00;100251.69;5033708;28;20029;-73
2022/11/25 10:08:02;;;;;;;9.77;5.03;;;;;;;9.84;100.00;100254.06;5033533;28;20071;-73
2022/11/25 10:10:42;;;;;;;108.20;42.30;;;;;;;9.88;100.00;100257.53;5033752;28;20556;-73
2022/11/25 10:13:33;;;;;;;114.55;52.05;;;;;;;9.88;100.00;100255.75;5022005;28;20030;-73
2022/11/25 10:16:03;;;;;;;31.75;15.70;;;;;;;9.88;100.00;100254.88;5029554;28;20041;-73
2022/11/25 10:18:38;;;;;;;18.75;10.88;;;;;;;9.85;100.00;100247.00;5026856;28;20036;-72
2022/11/25 10:21:04;;;;;;;9.90;5.75;;;;;;;9.83;100.00;100262.97;5013711;28;20479;-73
2022/11/25 10:23:33;;;;;;;9.77;6.05;;;;;;;9.87;100.00;100269.94;5027761;28;20117;-73
2022/11/25 10:26:12;;;;;;;10.73;5.22;;;;;;;9.92;100.00;100267.16;5012071;28;20029;-73
2022/11/25 10:28:45;;;;;;;9.68;5.53;;;;;;;9.97;100.00;100255.50;5025914;28;20038;-73
2022/11/25 10:31:13;;;;;;;11.98;5.18;;;;;;;10.05;100.00;100264.13;5032805;28;20038;-73
2022/11/25 10:33:50;;;;;;;12.23;5.00;;;;;;;10.09;100.00;100271.16;5027463;28;20042;-73
2022/11/25 10:36:20;;;;;;;12.98;5.78;;;;;;;10.09;100.00;100270.28;5022520;28;20026;-73
2022/11/25 10:39:09;;;;;;;11.30;5.82;;;;;;;10.06;100.00;100263.25;5015905;28;20033;-73
2022/11/25 10:41:49;;;;;;;12.80;5.07;;;;;;;10.15;100.00;100270.09;5024418;28;20026;-73
2022/11/25 10:44:30;;;;;;;9.02;4.53;;;;;;;10.08;100.00;100260.56;5030581;28;20750;-73
2022/11/25 10:46:58;;;;;;;10.38;4.70;;;;;;;10.19;100.00;100277.97;5026473;28;20105;-73
2022/11/25 10:49:37;;;;;;;12.18;5.13;;;;;;;10.27;100.00;100275.97;5037499;28;20022;-73
2022/11/25 10:52:09;;;;;;;10.73;5.25;;;;;;;10.32;100.00;100275.84;5027121;28;20091;-73
2022/11/25 10:54:35;;;;;;;11.70;5.00;;;;;;;10.47;100.00;100284.28;5022591;28;20025;-72
2022/11/25 10:57:03;;;;;;;14.32;5.57;;;;;;;10.52;100.00;100294.78;5023040;28;20334;-73
2022/11/25 10:59:38;;;;;;;8.68;4.32;;;;;;;10.61;100.00;100292.75;5036213;28;20032;-73
2022/11/25 11:02:30;;;;;;;7.78;5.20;;;;;;;10.72;100.00;100294.22;5023129;28;20036;-72
2022/11/25 11:05:00;;;;;;;6.32;3.45;;;;;;;10.83;100.00;100305.41;5028374;28;20733;-72
2022/11/25 11:07:31;;;;;;;7.20;3.53;;;;;;;10.94;100.00;100306.00;5022375;28;20477;-72
2022/11/25 11:10:12;;;;;;;10.60;4.35;;;;;;;11.00;100.00;100303.16;5018122;28;20025;-72
2022/11/25 11:12:58;;;;;;;13.95;4.63;;;;;;;11.00;100.00;100311.13;5017364;28;20030;-72
2022/11/25 11:15:28;;;;;;;15.18;3.90;;;;;;;10.99;100.00;100307.59;5017488;28;20045;-73
2022/11/25 11:17:56;;;;;;;9.05;3.63;;;;;;;11.04;100.00;100303.00;5026541;28;20433;-73
2022/11/25 11:20:31;;;;;;;8.85;4.03;;;;;;;11.09;100.00;100300.19;5017846;28;20073;-72
2022/11/25 11:23:12;;;;;;;17.25;8.05;;;;;;;11.21;100.00;100305.16;5016319;28;20368;-72
2022/11/25 11:25:40;;;;;;;9.23;3.78;;;;;;;11.22;100.00;100297.13;5028869;28;20448;-72
2022/11/25 11:28:25;;;;;;;10.75;4.38;;;;;;;11.31;100.00;100303.97;5013092;28;20060;-72
2022/11/25 11:31:14;;;;;;;11.57;4.32;;;;;;;11.31;100.00;100306.63;5022892;28;20478;-72
2022/11/25 11:33:50;;;;;;;6.40;3.03;;;;;;;11.33;100.00;100315.44;5017541;28;20480;-72
2022/11/25 11:36:39;;;;;;;8.18;3.83;;;;;;;11.37;100.00;100311.75;5014268;28;20048;-72
2022/11/25 11:39:23;;;;;;;7.43;3.58;;;;;;;11.37;100.00;100317.06;5013431;28;20030;-72
2022/11/25 11:42:16;;;;;;;6.18;3.00;;;;;;;11.50;100.00;100323.75;5015829;28;20141;-72
2022/11/25 11:44:50;;;;;;;8.63;4.00;;;;;;;11.61;100.00;100332.31;5017834;28;20030;-72